createdAt,value
2017-10-28T00:00:42.919Z,0
2017-10-28T00:01:51.923Z,0
2017-10-28T00:03:01.464Z,0
2017-10-28T00:04:10.313Z,0
2017-10-28T00:05:19.159Z,0
2017-10-28T00:06:28.005Z,0
2017-10-28T00:07:36.855Z,0
2017-10-28T00:08:45.700Z,0
2017-10-28T00:09:54.545Z,0
2017-10-28T00:11:03.396Z,0
2017-10-28T00:12:12.245Z,0
2017-10-28T00:13:21.291Z,0
2017-10-28T00:14:30.132Z,0
2017-10-28T00:15:38.981Z,0
2017-10-28T00:16:47.828Z,0
2017-10-28T00:17:56.676Z,0
2017-10-28T00:19:05.771Z,0
2017-10-28T00:20:14.619Z,0
2017-10-28T00:21:23.468Z,0
2017-10-28T00:22:32.317Z,0
2017-10-28T00:23:41.168Z,0
2017-10-28T00:24:50.011Z,0
2017-10-28T00:25:58.857Z,0
2017-10-28T00:27:07.701Z,0
2017-10-28T00:28:16.548Z,0
2017-10-28T00:29:25.396Z,0
2017-10-28T00:30:34.745Z,0
2017-10-28T00:31:43.588Z,0
2017-10-28T00:32:52.431Z,0
2017-10-28T00:34:01.280Z,0
2017-10-28T00:35:10.472Z,0
2017-10-28T00:36:19.517Z,0
2017-10-28T00:37:28.712Z,0
2017-10-28T00:38:37.561Z,0
2017-10-28T00:39:46.407Z,0
2017-10-28T00:40:55.255Z,0
2017-10-28T00:42:04.254Z,0
2017-10-28T00:43:13.098Z,0
2017-10-28T00:44:21.947Z,0
2017-10-28T00:45:30.790Z,0
2017-10-28T00:46:39.637Z,0
2017-10-28T00:47:48.632Z,0
2017-10-28T00:48:57.477Z,0
2017-10-28T00:50:06.323Z,0
2017-10-28T00:51:15.171Z,0
2017-10-28T00:52:24.016Z,0
2017-10-28T00:53:32.959Z,0
2017-10-28T00:54:41.810Z,0
2017-10-28T00:55:50.659Z,0
2017-10-28T00:56:59.508Z,0
2017-10-28T00:58:08.351Z,0
2017-10-28T00:59:17.639Z,0
2017-10-28T01:00:26.486Z,0
2017-10-28T01:01:35.336Z,0
2017-10-28T01:02:44.181Z,0
2017-10-28T01:03:53.026Z,0
2017-10-28T01:05:02.371Z,0
2017-10-28T01:06:11.218Z,0
2017-10-28T01:07:20.065Z,0
2017-10-28T01:08:29.259Z,0
2017-10-28T01:09:38.452Z,0
2017-10-28T01:10:47.298Z,0
2017-10-28T01:11:56.142Z,0
2017-10-28T01:13:04.986Z,0
2017-10-28T01:14:14.184Z,0
2017-10-28T01:15:23.035Z,0
2017-10-28T01:16:32.375Z,0
2017-10-28T01:17:41.221Z,0
2017-10-28T01:18:50.066Z,0
2017-10-28T01:19:58.910Z,0
2017-10-28T01:21:07.758Z,0
2017-10-28T01:22:16.703Z,0
2017-10-28T01:23:25.546Z,0
2017-10-28T01:24:34.390Z,0
2017-10-28T01:25:43.236Z,0
2017-10-28T01:26:52.426Z,0
2017-10-28T01:28:01.918Z,0
2017-10-28T01:29:10.761Z,0
2017-10-28T01:30:19.610Z,0
2017-10-28T01:31:28.459Z,0
2017-10-28T01:32:37.303Z,0
2017-10-28T01:33:46.299Z,0
2017-10-28T01:34:55.148Z,0
2017-10-28T01:36:04.000Z,0
2017-10-28T01:37:12.899Z,0
2017-10-28T01:38:21.743Z,0
2017-10-28T01:39:30.740Z,0
2017-10-28T01:40:39.928Z,0
2017-10-28T01:41:48.776Z,0
2017-10-28T01:42:57.623Z,0
2017-10-28T01:44:06.468Z,0
2017-10-28T01:45:15.412Z,0
2017-10-28T01:46:24.260Z,0
2017-10-28T01:47:33.113Z,0
2017-10-28T01:48:41.958Z,0
2017-10-28T01:49:50.804Z,0
2017-10-28T01:50:59.954Z,0
2017-10-28T01:52:08.803Z,0
2017-10-28T01:53:17.649Z,0
2017-10-28T01:54:26.494Z,0
2017-10-28T01:55:35.339Z,0
2017-10-28T01:56:44.185Z,0
2017-10-28T01:57:53.033Z,0
2017-10-28T01:59:01.881Z,0
2017-10-28T02:00:11.079Z,0
2017-10-28T02:01:19.919Z,0
2017-10-28T02:02:28.867Z,0
2017-10-28T02:03:37.715Z,0
2017-10-28T02:04:46.563Z,0
2017-10-28T02:05:55.408Z,0
2017-10-28T02:07:04.254Z,0
2017-10-28T02:08:13.101Z,0
2017-10-28T02:09:21.951Z,0
2017-10-28T02:10:30.800Z,0
2017-10-28T02:11:39.645Z,0
2017-10-28T02:12:48.495Z,0
2017-10-28T02:13:57.493Z,0
2017-10-28T02:15:06.340Z,0
2017-10-28T02:16:15.192Z,0
2017-10-28T02:17:24.034Z,0
2017-10-28T02:18:32.882Z,0
2017-10-28T02:19:41.826Z,0
2017-10-28T02:20:50.673Z,0
2017-10-28T02:21:59.518Z,0
2017-10-28T02:23:08.367Z,0
2017-10-28T02:24:17.212Z,0
2017-10-28T02:25:26.358Z,0
2017-10-28T02:26:35.203Z,0
2017-10-28T02:27:44.054Z,0
2017-10-28T02:28:52.902Z,0
2017-10-28T02:30:01.751Z,0
2017-10-28T02:31:10.802Z,0
2017-10-28T02:32:19.639Z,0
2017-10-28T02:33:28.487Z,0
2017-10-28T02:34:37.339Z,0
2017-10-28T02:35:46.175Z,0
2017-10-28T02:36:55.369Z,0
2017-10-28T02:38:04.216Z,0
2017-10-28T02:39:13.062Z,0
2017-10-28T02:40:21.908Z,0
2017-10-28T02:41:30.760Z,0
2017-10-28T02:42:39.655Z,0
2017-10-28T02:43:48.503Z,0
2017-10-28T02:44:57.349Z,0
2017-10-28T02:46:06.190Z,0
2017-10-28T02:47:15.037Z,0
2017-10-28T02:48:24.479Z,0
2017-10-28T02:49:33.325Z,0
2017-10-28T02:50:42.169Z,0
2017-10-28T02:51:51.015Z,0
2017-10-28T02:52:59.863Z,0
2017-10-28T02:54:09.261Z,0
2017-10-28T02:55:18.450Z,0
2017-10-28T02:56:27.300Z,0
2017-10-28T02:57:36.150Z,0
2017-10-28T02:58:44.995Z,0
2017-10-28T02:59:53.995Z,0
2017-10-28T03:01:03.195Z,0
2017-10-28T03:02:12.044Z,0
2017-10-28T03:03:20.886Z,0
2017-10-28T03:04:29.729Z,0
2017-10-28T03:05:38.877Z,0
2017-10-28T03:06:48.083Z,0
2017-10-28T03:07:56.928Z,0
2017-10-28T03:09:05.777Z,0
2017-10-28T03:10:14.626Z,0
2017-10-28T03:11:23.573Z,0
2017-10-28T03:12:32.424Z,0
2017-10-28T03:13:41.268Z,0
2017-10-28T03:14:50.115Z,0
2017-10-28T03:15:58.961Z,0
2017-10-28T03:17:08.106Z,0
2017-10-28T03:18:16.958Z,0
2017-10-28T03:19:25.799Z,0
2017-10-28T03:20:34.645Z,0
2017-10-28T03:21:43.492Z,0
2017-10-28T03:22:52.439Z,0
2017-10-28T03:24:01.286Z,0
2017-10-28T03:25:10.134Z,0
2017-10-28T03:26:18.980Z,0
2017-10-28T03:27:27.833Z,0
2017-10-28T03:28:36.778Z,0
2017-10-28T03:29:45.624Z,0
2017-10-28T03:30:54.471Z,0
2017-10-28T03:32:03.315Z,0
2017-10-28T03:33:12.161Z,0
2017-10-28T03:34:21.759Z,0
2017-10-28T03:35:30.603Z,0
2017-10-28T03:36:39.446Z,0
2017-10-28T03:37:48.296Z,0
2017-10-28T03:38:57.149Z,0
2017-10-28T03:40:06.095Z,0
2017-10-28T03:41:14.942Z,0
2017-10-28T03:42:23.787Z,0
2017-10-28T03:43:32.639Z,0
2017-10-28T03:44:41.483Z,0
2017-10-28T03:45:50.640Z,0
2017-10-28T03:46:59.474Z,0
2017-10-28T03:48:08.322Z,0
2017-10-28T03:49:17.169Z,0
2017-10-28T03:50:26.016Z,0
2017-10-28T03:51:34.862Z,0
2017-10-28T03:52:43.712Z,0
2017-10-28T03:53:52.559Z,0
2017-10-28T03:55:01.415Z,0
2017-10-28T03:56:10.256Z,0
2017-10-28T03:57:19.108Z,0
2017-10-28T03:58:27.960Z,0
2017-10-28T03:59:36.800Z,0
2017-10-28T04:00:45.646Z,0
2017-10-28T04:01:54.854Z,0
2017-10-28T04:03:03.792Z,0
2017-10-28T04:04:12.646Z,0
2017-10-28T04:05:21.486Z,0
2017-10-28T04:06:30.330Z,0
2017-10-28T04:07:39.175Z,0
2017-10-28T04:08:48.126Z,0
2017-10-28T04:09:56.975Z,0
2017-10-28T04:11:05.823Z,0
2017-10-28T04:12:14.672Z,0
2017-10-28T04:13:23.519Z,0
2017-10-28T04:14:32.668Z,0
2017-10-28T04:15:41.515Z,0
2017-10-28T04:16:50.362Z,0
2017-10-28T04:17:59.564Z,0
2017-10-28T04:19:08.408Z,0
2017-10-28T04:20:17.408Z,0
2017-10-28T04:21:26.253Z,0
2017-10-28T04:22:35.101Z,0
2017-10-28T04:23:43.947Z,0
2017-10-28T04:24:52.795Z,0
2017-10-28T04:26:01.751Z,0
2017-10-28T04:27:10.587Z,0
2017-10-28T04:28:19.433Z,0
2017-10-28T04:29:28.328Z,0
2017-10-28T04:30:37.171Z,0
2017-10-28T04:31:46.320Z,0
2017-10-28T04:32:55.165Z,0
2017-10-28T04:34:04.011Z,0
2017-10-28T04:35:12.857Z,0
2017-10-28T04:36:21.705Z,0
2017-10-28T04:37:30.654Z,0
2017-10-28T04:38:39.501Z,0
2017-10-28T04:39:48.349Z,0
2017-10-28T04:40:57.203Z,0
2017-10-28T04:42:06.047Z,0
2017-10-28T04:43:15.045Z,0
2017-10-28T04:44:23.888Z,0
2017-10-28T04:45:32.785Z,0
2017-10-28T04:46:41.631Z,0
2017-10-28T04:47:50.480Z,0
2017-10-28T04:48:59.477Z,0
2017-10-28T04:50:08.324Z,0
2017-10-28T04:51:17.171Z,0
2017-10-28T04:52:26.365Z,0
2017-10-28T04:53:35.210Z,0
2017-10-28T04:54:44.307Z,0
2017-10-28T04:55:53.155Z,0
2017-10-28T04:57:02.003Z,0
2017-10-28T04:58:11.196Z,0
2017-10-28T04:59:20.041Z,0
2017-10-28T05:00:29.186Z,0
2017-10-28T05:01:38.032Z,0
2017-10-28T05:02:46.879Z,0
2017-10-28T05:03:55.728Z,0
2017-10-28T05:05:04.576Z,0
2017-10-28T05:06:13.572Z,0
2017-10-28T05:07:22.766Z,0
2017-10-28T05:08:31.612Z,0
2017-10-28T05:09:40.468Z,0
2017-10-28T05:10:49.308Z,0
2017-10-28T05:11:58.455Z,0
2017-10-28T05:13:07.309Z,0
2017-10-28T05:14:16.152Z,0
2017-10-28T05:15:25.000Z,0
2017-10-28T05:16:33.844Z,0
2017-10-28T05:17:42.938Z,0
2017-10-28T05:18:51.783Z,0
2017-10-28T05:20:00.627Z,0
2017-10-28T05:21:09.476Z,0
2017-10-28T05:22:18.325Z,0
2017-10-28T05:23:27.372Z,0
2017-10-28T05:24:36.566Z,0
2017-10-28T05:25:45.437Z,0
2017-10-28T05:26:54.306Z,0
2017-10-28T05:28:03.201Z,0
2017-10-28T05:29:12.254Z,0
2017-10-28T05:30:21.122Z,0
2017-10-28T05:31:29.985Z,0
2017-10-28T05:32:38.841Z,0
2017-10-28T05:33:47.686Z,0
2017-10-28T05:34:56.634Z,0
2017-10-28T05:36:05.828Z,0
2017-10-28T05:37:14.674Z,0
2017-10-28T05:38:23.522Z,0
2017-10-28T05:39:32.372Z,0
2017-10-28T05:40:41.379Z,0
2017-10-28T05:41:50.217Z,0
2017-10-28T05:42:59.061Z,0
2017-10-28T05:44:07.909Z,0
2017-10-28T05:45:16.758Z,0
2017-10-28T05:46:26.247Z,0
2017-10-28T05:47:35.437Z,0
2017-10-28T05:48:44.283Z,0
2017-10-28T05:49:53.132Z,0
2017-10-28T05:51:02.325Z,0
2017-10-28T05:52:11.274Z,0
2017-10-28T05:53:20.467Z,0
2017-10-28T05:54:29.314Z,4
2017-10-28T05:55:38.160Z,4
2017-10-28T05:56:47.005Z,4
2017-10-28T05:57:56.257Z,4
2017-10-28T05:59:05.107Z,4
2017-10-28T06:00:13.956Z,8
2017-10-28T06:01:22.796Z,8
2017-10-28T06:02:31.641Z,8
2017-10-28T06:03:40.590Z,12
2017-10-28T06:04:49.437Z,12
2017-10-28T06:05:58.285Z,20
2017-10-28T06:07:07.130Z,20
2017-10-28T06:08:15.983Z,20
2017-10-28T06:09:24.831Z,20
2017-10-28T06:10:33.680Z,24
2017-10-28T06:11:42.527Z,20
2017-10-28T06:12:51.729Z,24
2017-10-28T06:14:01.021Z,28
2017-10-28T06:15:09.868Z,24
2017-10-28T06:16:19.058Z,24
2017-10-28T06:17:27.909Z,32
2017-10-28T06:18:36.752Z,36
2017-10-28T06:19:45.945Z,48
2017-10-28T06:20:54.795Z,56
2017-10-28T06:22:03.647Z,60
2017-10-28T06:23:12.497Z,68
2017-10-28T06:24:21.492Z,72
2017-10-28T06:25:30.340Z,68
2017-10-28T06:26:39.197Z,76
2017-10-28T06:27:48.047Z,80
2017-10-28T06:28:56.893Z,84
2017-10-28T06:30:05.737Z,88
2017-10-28T06:31:14.587Z,84
2017-10-28T06:32:23.433Z,140
2017-10-28T06:33:32.282Z,132
2017-10-28T06:34:41.279Z,112
2017-10-28T06:35:50.137Z,164
2017-10-28T06:36:58.982Z,148
2017-10-28T06:38:07.828Z,132
2017-10-28T06:39:16.674Z,140
2017-10-28T06:40:25.822Z,144
2017-10-28T06:41:34.672Z,152
2017-10-28T06:42:43.515Z,180
2017-10-28T06:43:52.365Z,224
2017-10-28T06:45:01.213Z,228
2017-10-28T06:46:10.357Z,208
2017-10-28T06:47:19.603Z,208
2017-10-28T06:48:28.451Z,192
2017-10-28T06:49:37.298Z,256
2017-10-28T06:50:46.152Z,164
2017-10-28T06:51:55.097Z,180
2017-10-28T06:53:04.287Z,248
2017-10-28T06:54:13.137Z,304
2017-10-28T06:55:21.984Z,272
2017-10-28T06:56:30.831Z,296
2017-10-28T06:57:39.833Z,260
2017-10-28T06:58:48.677Z,400
2017-10-28T06:59:57.527Z,352
2017-10-28T07:01:06.375Z,440
2017-10-28T07:02:15.224Z,500
2017-10-28T07:03:24.271Z,492
2017-10-28T07:04:33.118Z,540
2017-10-28T07:05:41.968Z,508
2017-10-28T07:06:50.827Z,436
2017-10-28T07:07:59.679Z,488
2017-10-28T07:09:08.639Z,588
2017-10-28T07:10:17.487Z,692
2017-10-28T07:11:26.681Z,764
2017-10-28T07:12:35.534Z,664
2017-10-28T07:13:44.381Z,700
2017-10-28T07:14:53.532Z,776
2017-10-28T07:16:02.733Z,880
2017-10-28T07:17:11.581Z,996
2017-10-28T07:18:20.429Z,1024
2017-10-28T07:19:29.624Z,896
2017-10-28T07:20:38.570Z,744
2017-10-28T07:21:47.772Z,652
2017-10-28T07:22:56.620Z,568
2017-10-28T07:24:05.834Z,504
2017-10-28T07:25:14.664Z,508
2017-10-28T07:26:23.561Z,632
2017-10-28T07:27:32.410Z,824
2017-10-28T07:28:41.261Z,940
2017-10-28T07:29:50.104Z,1000
2017-10-28T07:30:58.956Z,1008
2017-10-28T07:32:08.096Z,980
2017-10-28T07:33:17.291Z,992
2017-10-28T07:34:26.436Z,984
2017-10-28T07:35:35.285Z,856
2017-10-28T07:36:44.133Z,1052
2017-10-28T07:37:53.234Z,1208
2017-10-28T07:39:02.083Z,1188
2017-10-28T07:40:10.932Z,1072
2017-10-28T07:41:19.782Z,1048
2017-10-28T07:42:28.629Z,1068
2017-10-28T07:43:37.576Z,964
2017-10-28T07:44:46.424Z,956
2017-10-28T07:45:55.272Z,960
2017-10-28T07:47:04.122Z,928
2017-10-28T07:48:12.976Z,948
2017-10-28T07:49:21.882Z,952
2017-10-28T07:50:30.724Z,948
2017-10-28T07:51:39.575Z,956
2017-10-28T07:52:48.442Z,1000
2017-10-28T07:53:57.294Z,1092
2017-10-28T07:55:06.444Z,1124
2017-10-28T07:56:15.292Z,1272
2017-10-28T07:57:24.139Z,1284
2017-10-28T07:58:32.988Z,1312
2017-10-28T07:59:41.835Z,1324
2017-10-28T08:00:50.735Z,1488
2017-10-28T08:01:59.584Z,1644
2017-10-28T08:03:08.435Z,1472
2017-10-28T08:04:17.281Z,1304
2017-10-28T08:05:26.129Z,1068
2017-10-28T08:06:35.080Z,1028
2017-10-28T08:07:43.931Z,1068
2017-10-28T08:08:52.777Z,1232
2017-10-28T08:10:01.971Z,1300
2017-10-28T08:11:10.820Z,1376
2017-10-28T08:12:19.770Z,1372
2017-10-28T08:13:28.617Z,1500
2017-10-28T08:14:37.469Z,1580
2017-10-28T08:15:46.321Z,1628
2017-10-28T08:16:55.168Z,1612
2017-10-28T08:18:04.016Z,1508
2017-10-28T08:19:12.866Z,1616
2017-10-28T08:20:21.717Z,1692
2017-10-28T08:21:30.910Z,1676
2017-10-28T08:22:39.759Z,1660
2017-10-28T08:23:48.608Z,1708
2017-10-28T08:24:57.455Z,1708
2017-10-28T08:26:06.304Z,1768
2017-10-28T08:27:15.162Z,1940
2017-10-28T08:28:24.004Z,2060
2017-10-28T08:29:32.902Z,2244
2017-10-28T08:30:41.808Z,2360
2017-10-28T08:31:50.649Z,2412
2017-10-28T08:32:59.498Z,2456
2017-10-28T08:34:08.346Z,2440
2017-10-28T08:35:17.496Z,2316
2017-10-28T08:36:26.349Z,2280
2017-10-28T08:37:35.228Z,2328
2017-10-28T08:38:44.052Z,2380
2017-10-28T08:39:52.903Z,2492
2017-10-28T08:41:01.747Z,2648
2017-10-28T08:42:10.603Z,2704
2017-10-28T08:43:19.451Z,2732
2017-10-28T08:44:28.302Z,2584
2017-10-28T08:45:37.155Z,2432
2017-10-28T08:46:46.200Z,2448
2017-10-28T08:47:55.054Z,2464
2017-10-28T08:49:03.927Z,2512
2017-10-28T08:50:12.757Z,2576
2017-10-28T08:51:21.606Z,2736
2017-10-28T08:52:30.614Z,2704
2017-10-28T08:53:39.463Z,2836
2017-10-28T08:54:48.312Z,2784
2017-10-28T08:55:57.161Z,2668
2017-10-28T08:57:06.026Z,2524
2017-10-28T08:58:15.230Z,2488
2017-10-28T08:59:24.084Z,2188
2017-10-28T09:00:32.928Z,2740
2017-10-28T09:01:41.779Z,2540
2017-10-28T09:02:50.630Z,2196
2017-10-28T09:03:59.582Z,1848
2017-10-28T09:05:08.501Z,2276
2017-10-28T09:06:17.371Z,2164
2017-10-28T09:07:26.642Z,2564
2017-10-28T09:08:35.492Z,2868
2017-10-28T09:09:44.441Z,2864
2017-10-28T09:10:53.291Z,2676
2017-10-28T09:12:02.141Z,2888
2017-10-28T09:13:11.406Z,3168
2017-10-28T09:14:20.596Z,3304
2017-10-28T09:15:29.545Z,3312
2017-10-28T09:16:38.393Z,2652
2017-10-28T09:17:47.244Z,2148
2017-10-28T09:18:56.089Z,2404
2017-10-28T09:20:04.943Z,2384
2017-10-28T09:21:14.194Z,2244
2017-10-28T09:22:23.041Z,2104
2017-10-28T09:23:31.891Z,2204
2017-10-28T09:24:40.740Z,2272
2017-10-28T09:25:49.591Z,2416
2017-10-28T09:26:58.645Z,2136
2017-10-28T09:28:07.493Z,2140
2017-10-28T09:29:16.342Z,1916
2017-10-28T09:30:25.191Z,1696
2017-10-28T09:31:34.045Z,1740
2017-10-28T09:32:42.995Z,1764
2017-10-28T09:33:51.848Z,1816
2017-10-28T09:35:00.754Z,2000
2017-10-28T09:36:09.604Z,1868
2017-10-28T09:37:18.467Z,1864
2017-10-28T09:38:27.363Z,1904
2017-10-28T09:39:36.209Z,2132
2017-10-28T09:40:45.062Z,2312
2017-10-28T09:41:53.907Z,2044
2017-10-28T09:43:02.755Z,1940
2017-10-28T09:44:12.008Z,1560
2017-10-28T09:45:21.191Z,2236
2017-10-28T09:46:30.386Z,2408
2017-10-28T09:47:39.588Z,2292
2017-10-28T09:48:48.436Z,1924
2017-10-28T09:49:57.446Z,1868
2017-10-28T09:51:06.296Z,2024
2017-10-28T09:52:15.145Z,2164
2017-10-28T09:53:24.048Z,2088
2017-10-28T09:54:32.899Z,2296
2017-10-28T09:55:41.894Z,2720
2017-10-28T09:56:50.742Z,2700
2017-10-28T09:57:59.595Z,2228
2017-10-28T09:59:08.442Z,2200
2017-10-28T10:00:17.294Z,2172
2017-10-28T10:01:26.244Z,2300
2017-10-28T10:02:35.094Z,2292
2017-10-28T10:03:43.946Z,2176
2017-10-28T10:04:52.796Z,2192
2017-10-28T10:06:01.711Z,1988
2017-10-28T10:07:10.619Z,1804
2017-10-28T10:08:19.520Z,2428
2017-10-28T10:09:28.368Z,3012
2017-10-28T10:10:37.286Z,3276
2017-10-28T10:11:46.481Z,2680
2017-10-28T10:12:55.328Z,2792
2017-10-28T10:14:04.177Z,2796
2017-10-28T10:15:13.031Z,3392
2017-10-28T10:16:21.882Z,3880
2017-10-28T10:17:30.727Z,4100
2017-10-28T10:18:39.824Z,4032
2017-10-28T10:19:48.675Z,4176
2017-10-28T10:20:57.524Z,4348
2017-10-28T10:22:06.380Z,4068
2017-10-28T10:23:15.223Z,3752
2017-10-28T10:24:24.076Z,3948
2017-10-28T10:25:33.270Z,3196
2017-10-28T10:26:42.120Z,4124
2017-10-28T10:27:50.969Z,3772
2017-10-28T10:28:59.818Z,4324
2017-10-28T10:30:08.671Z,4244
2017-10-28T10:31:17.519Z,4004
2017-10-28T10:32:26.373Z,3400
2017-10-28T10:33:35.218Z,3688
2017-10-28T10:34:44.118Z,3440
2017-10-28T10:35:53.067Z,3440
2017-10-28T10:37:01.929Z,3208
2017-10-28T10:38:10.766Z,3120
2017-10-28T10:39:19.614Z,3556
2017-10-28T10:40:28.461Z,3148
2017-10-28T10:41:37.459Z,2812
2017-10-28T10:42:46.313Z,1816
2017-10-28T10:43:55.160Z,1624
2017-10-28T10:45:04.012Z,1648
2017-10-28T10:46:12.865Z,2472
2017-10-28T10:47:21.863Z,2640
2017-10-28T10:48:30.711Z,2756
2017-10-28T10:49:39.622Z,3508
2017-10-28T10:50:48.471Z,2796
2017-10-28T10:51:57.322Z,2668
2017-10-28T10:53:06.419Z,2236
2017-10-28T10:54:15.268Z,2604
2017-10-28T10:55:24.115Z,2016
2017-10-28T10:56:33.023Z,2968
2017-10-28T10:57:41.872Z,2908
2017-10-28T10:58:50.771Z,3800
2017-10-28T10:59:59.620Z,3424
2017-10-28T11:01:08.472Z,3640
2017-10-28T11:02:17.666Z,3536
2017-10-28T11:03:26.518Z,2672
2017-10-28T11:04:35.525Z,3104
2017-10-28T11:05:44.429Z,3424
2017-10-28T11:06:53.274Z,3580
2017-10-28T11:08:02.124Z,2504
2017-10-28T11:09:10.974Z,2156
2017-10-28T11:10:19.976Z,2216
2017-10-28T11:11:28.828Z,1956
2017-10-28T11:12:37.674Z,2416
2017-10-28T11:13:46.523Z,2096
2017-10-28T11:14:55.432Z,2884
2017-10-28T11:16:04.383Z,2700
2017-10-28T11:17:13.293Z,2784
2017-10-28T11:18:22.202Z,2648
2017-10-28T11:19:31.058Z,1876
2017-10-28T11:20:39.907Z,2776
2017-10-28T11:21:48.876Z,3792
2017-10-28T11:22:57.727Z,4448
2017-10-28T11:24:06.577Z,2928
2017-10-28T11:25:15.426Z,3720
2017-10-28T11:26:24.340Z,3512
2017-10-28T11:27:33.289Z,4388
2017-10-28T11:28:42.482Z,3876
2017-10-28T11:29:51.332Z,3480
2017-10-28T11:31:00.244Z,3344
2017-10-28T11:32:09.160Z,2976
2017-10-28T11:33:18.210Z,3032
2017-10-28T11:34:27.059Z,3072
2017-10-28T11:35:35.910Z,3600
2017-10-28T11:36:44.876Z,3596
2017-10-28T11:37:53.721Z,3128
2017-10-28T11:39:02.574Z,3476
2017-10-28T11:40:11.420Z,4100
2017-10-28T11:41:20.267Z,4012
2017-10-28T11:42:29.172Z,3736
2017-10-28T11:43:38.021Z,3656
2017-10-28T11:44:47.020Z,3268
2017-10-28T11:45:55.945Z,3232
2017-10-28T11:47:04.810Z,2812
2017-10-28T11:48:13.713Z,3228
2017-10-28T11:49:22.683Z,3608
2017-10-28T11:50:31.801Z,4852
2017-10-28T11:51:40.650Z,4996
2017-10-28T11:52:49.511Z,5632
2017-10-28T11:53:58.364Z,4604
2017-10-28T11:55:07.212Z,2888
2017-10-28T11:56:16.266Z,3104
2017-10-28T11:57:25.114Z,4076
2017-10-28T11:58:33.968Z,3656
2017-10-28T11:59:43.162Z,3504
2017-10-28T12:00:52.018Z,3608
2017-10-28T12:02:00.864Z,3428
2017-10-28T12:03:09.715Z,3188
2017-10-28T12:04:18.564Z,2660
2017-10-28T12:05:27.479Z,2780
2017-10-28T12:06:36.332Z,4260
2017-10-28T12:07:45.285Z,4036
2017-10-28T12:08:54.135Z,4380
2017-10-28T12:10:03.047Z,4048
2017-10-28T12:11:11.896Z,2840
2017-10-28T12:12:20.745Z,3752
2017-10-28T12:13:29.795Z,3092
2017-10-28T12:14:38.641Z,3588
2017-10-28T12:15:47.493Z,3748
2017-10-28T12:16:56.342Z,4332
2017-10-28T12:18:05.193Z,3512
2017-10-28T12:19:14.197Z,3164
2017-10-28T12:20:23.109Z,2640
2017-10-28T12:21:31.953Z,3636
2017-10-28T12:22:40.805Z,3920
2017-10-28T12:23:49.662Z,3292
2017-10-28T12:24:58.513Z,3316
2017-10-28T12:26:07.365Z,3872
2017-10-28T12:27:16.214Z,3708
2017-10-28T12:28:25.064Z,3848
2017-10-28T12:29:33.917Z,3892
2017-10-28T12:30:42.878Z,3684
2017-10-28T12:31:52.072Z,2948
2017-10-28T12:33:00.920Z,2684
2017-10-28T12:34:09.771Z,2808
2017-10-28T12:35:18.625Z,2684
2017-10-28T12:36:27.631Z,2880
2017-10-28T12:37:36.482Z,3704
2017-10-28T12:38:45.331Z,3860
2017-10-28T12:39:54.182Z,2172
2017-10-28T12:41:03.031Z,2072
2017-10-28T12:42:12.029Z,2484
2017-10-28T12:43:20.878Z,2992
2017-10-28T12:44:29.728Z,2712
2017-10-28T12:45:38.580Z,2972
2017-10-28T12:46:47.438Z,2916
2017-10-28T12:47:56.436Z,2960
2017-10-28T12:49:05.285Z,2368
2017-10-28T12:50:14.139Z,3484
2017-10-28T12:51:23.010Z,3768
2017-10-28T12:52:31.859Z,2176
2017-10-28T12:53:40.867Z,2944
2017-10-28T12:54:49.720Z,2440
2017-10-28T12:55:58.567Z,3104
2017-10-28T12:57:07.762Z,3160
2017-10-28T12:58:16.609Z,2556
2017-10-28T12:59:25.611Z,2668
2017-10-28T13:00:34.811Z,2112
2017-10-28T13:01:43.658Z,2204
2017-10-28T13:02:52.870Z,2736
2017-10-28T13:04:01.709Z,3340
2017-10-28T13:05:10.815Z,3276
2017-10-28T13:06:20.028Z,3332
2017-10-28T13:07:28.873Z,3372
2017-10-28T13:08:37.723Z,2552
2017-10-28T13:09:46.575Z,2696
2017-10-28T13:10:55.727Z,2756
2017-10-28T13:12:04.573Z,2404
2017-10-28T13:13:13.421Z,2696
2017-10-28T13:14:22.270Z,2272
2017-10-28T13:15:31.119Z,2264
2017-10-28T13:16:40.019Z,2576
2017-10-28T13:17:48.872Z,2928
2017-10-28T13:18:57.719Z,2628
2017-10-28T13:20:06.569Z,2560
2017-10-28T13:21:15.421Z,2752
2017-10-28T13:22:24.370Z,2904
2017-10-28T13:23:33.218Z,2512
2017-10-28T13:24:42.071Z,2508
2017-10-28T13:25:51.274Z,2212
2017-10-28T13:27:00.117Z,2136
2017-10-28T13:28:09.168Z,2180
2017-10-28T13:29:18.015Z,1924
2017-10-28T13:30:26.868Z,2000
2017-10-28T13:31:35.715Z,1936
2017-10-28T13:32:44.565Z,1844
2017-10-28T13:33:53.414Z,1712
2017-10-28T13:35:02.265Z,1556
2017-10-28T13:36:11.115Z,1632
2017-10-28T13:37:19.965Z,1332
2017-10-28T13:38:28.817Z,1412
2017-10-28T13:39:38.127Z,1620
2017-10-28T13:40:46.977Z,1864
2017-10-28T13:41:55.825Z,1748
2017-10-28T13:43:05.020Z,1580
2017-10-28T13:44:13.871Z,1292
2017-10-28T13:45:22.972Z,1276
2017-10-28T13:46:31.821Z,1272
2017-10-28T13:47:40.673Z,1292
2017-10-28T13:48:49.519Z,1128
2017-10-28T13:49:58.371Z,1036
2017-10-28T13:51:07.371Z,1204
2017-10-28T13:52:16.222Z,1232
2017-10-28T13:53:25.069Z,1120
2017-10-28T13:54:33.919Z,1076
2017-10-28T13:55:42.767Z,1156
2017-10-28T13:56:51.765Z,1184
2017-10-28T13:58:00.610Z,1324
2017-10-28T13:59:09.457Z,1472
2017-10-28T14:00:18.305Z,1264
2017-10-28T14:01:27.156Z,1132
2017-10-28T14:02:36.005Z,884
2017-10-28T14:03:44.856Z,984
2017-10-28T14:04:53.707Z,808
2017-10-28T14:06:02.556Z,764
2017-10-28T14:07:11.404Z,920
2017-10-28T14:08:20.562Z,1056
2017-10-28T14:09:29.403Z,1000
2017-10-28T14:10:38.301Z,1180
2017-10-28T14:11:47.148Z,1212
2017-10-28T14:12:55.997Z,1280
2017-10-28T14:14:05.000Z,1376
2017-10-28T14:15:13.850Z,1184
2017-10-28T14:16:22.756Z,1132
2017-10-28T14:17:31.950Z,1208
2017-10-28T14:18:40.798Z,1360
2017-10-28T14:19:49.749Z,1552
2017-10-28T14:20:58.597Z,1432
2017-10-28T14:22:07.451Z,1276
2017-10-28T14:23:16.303Z,1340
2017-10-28T14:24:25.150Z,1408
2017-10-28T14:25:34.152Z,1356
2017-10-28T14:26:43.007Z,1244
2017-10-28T14:27:51.907Z,1040
2017-10-28T14:29:00.764Z,812
2017-10-28T14:30:09.617Z,788
2017-10-28T14:31:18.810Z,696
2017-10-28T14:32:27.662Z,664
2017-10-28T14:33:36.514Z,556
2017-10-28T14:34:47.968Z,500
2017-10-28T14:35:56.813Z,364
2017-10-28T14:37:05.661Z,288
2017-10-28T14:38:14.512Z,344
2017-10-28T14:39:23.360Z,496
2017-10-28T14:40:32.309Z,716
2017-10-28T14:41:41.157Z,548
2017-10-28T14:42:50.157Z,460
2017-10-28T14:43:59.348Z,364
2017-10-28T14:45:08.195Z,376
2017-10-28T14:46:17.387Z,332
2017-10-28T14:47:26.237Z,328
2017-10-28T14:48:35.384Z,368
2017-10-28T14:49:44.275Z,404
2017-10-28T14:50:53.120Z,388
2017-10-28T14:52:01.975Z,340
2017-10-28T14:53:11.169Z,288
2017-10-28T14:54:20.121Z,284
2017-10-28T14:55:28.968Z,364
2017-10-28T14:56:37.816Z,292
2017-10-28T14:57:46.662Z,404
2017-10-28T14:58:55.508Z,496
2017-10-28T15:00:04.912Z,452
2017-10-28T15:01:13.760Z,436
2017-10-28T15:02:22.609Z,500
2017-10-28T15:03:31.458Z,292
2017-10-28T15:04:40.308Z,288
2017-10-28T15:05:49.604Z,220
2017-10-28T15:06:58.451Z,260
2017-10-28T15:08:07.302Z,244
2017-10-28T15:09:16.151Z,276
2017-10-28T15:10:25.009Z,268
2017-10-28T15:11:34.128Z,204
2017-10-28T15:12:42.960Z,236
2017-10-28T15:13:51.810Z,220
2017-10-28T15:15:00.663Z,244
2017-10-28T15:16:09.517Z,352
2017-10-28T15:17:18.466Z,400
2017-10-28T15:18:27.315Z,412
2017-10-28T15:19:36.166Z,324
2017-10-28T15:20:45.020Z,240
2017-10-28T15:21:53.872Z,256
2017-10-28T15:23:02.769Z,268
2017-10-28T15:24:11.619Z,196
2017-10-28T15:25:20.464Z,180
2017-10-28T15:26:29.312Z,112
2017-10-28T15:27:38.162Z,80
2017-10-28T15:28:47.164Z,160
2017-10-28T15:29:56.015Z,196
2017-10-28T15:31:05.214Z,164
2017-10-28T15:32:14.062Z,120
2017-10-28T15:33:22.916Z,104
2017-10-28T15:34:31.859Z,160
2017-10-28T15:35:40.712Z,140
2017-10-28T15:36:49.567Z,144
2017-10-28T15:37:58.414Z,132
2017-10-28T15:39:07.261Z,84
2017-10-28T15:40:16.211Z,84
2017-10-28T15:41:25.059Z,76
2017-10-28T15:42:33.911Z,56
2017-10-28T15:43:43.115Z,40
2017-10-28T15:44:51.962Z,56
2017-10-28T15:46:00.912Z,44
2017-10-28T15:47:09.762Z,48
2017-10-28T15:48:18.615Z,28
2017-10-28T15:49:27.469Z,36
2017-10-28T15:50:36.318Z,36
2017-10-28T15:51:45.266Z,40
2017-10-28T15:52:54.118Z,36
2017-10-28T15:54:03.027Z,36
2017-10-28T15:55:12.216Z,36
2017-10-28T15:56:21.068Z,32
2017-10-28T15:57:30.019Z,20
2017-10-28T15:58:38.924Z,20
2017-10-28T15:59:47.775Z,20
2017-10-28T16:00:56.630Z,28
2017-10-28T16:02:05.479Z,24